sensor_id;sensor_type;location;lat;lon;timestamp;P1;durP1;ratioP1;P2;durP2;ratioP2
19161;SDS011;9713;48.140;11.530;2023-03-23T00:00:19;3.57;;;2.30;;
19161;SDS011;9713;48.140;11.530;2023-03-23T00:04:01;4.43;;;2.93;;
19161;SDS011;9713;48.140;11.530;2023-03-23T00:07:44;2.93;;;1.93;;
19161;SDS011;9713;48.140;11.530;2023-03-23T00:11:27;4.90;;;2.67;;
19161;SDS011;9713;48.140;11.530;2023-03-23T00:15:10;4.00;;;2.40;;
19161;SDS011;9713;48.140;11.530;2023-03-23T00:18:53;4.07;;;2.53;;
19161;SDS011;9713;48.140;11.530;2023-03-23T00:22:34;5.63;;;2.20;;
19161;SDS011;9713;48.140;11.530;2023-03-23T00:26:19;5.57;;;2.40;;
19161;SDS011;9713;48.140;11.530;2023-03-23T00:30:00;3.73;;;2.20;;
19161;SDS011;9713;48.140;11.530;2023-03-23T00:33:42;3.60;;;2.40;;
19161;SDS011;9713;48.140;11.530;2023-03-23T00:37:24;2.30;;;1.90;;
19161;SDS011;9713;48.140;11.530;2023-03-23T00:41:06;3.57;;;2.20;;
19161;SDS011;9713;48.140;11.530;2023-03-23T00:44:48;5.77;;;2.40;;
19161;SDS011;9713;48.140;11.530;2023-03-23T00:48:31;5.80;;;2.33;;
19161;SDS011;9713;48.140;11.530;2023-03-23T00:52:12;4.80;;;2.50;;
19161;SDS011;9713;48.140;11.530;2023-03-23T00:55:54;3.87;;;2.17;;
19161;SDS011;9713;48.140;11.530;2023-03-23T00:59:36;2.93;;;2.00;;
19161;SDS011;9713;48.140;11.530;2023-03-23T01:03:19;4.57;;;2.00;;
19161;SDS011;9713;48.140;11.530;2023-03-23T01:07:01;3.10;;;1.70;;
19161;SDS011;9713;48.140;11.530;2023-03-23T01:10:42;3.70;;;2.30;;
19161;SDS011;9713;48.140;11.530;2023-03-23T01:14:24;2.77;;;2.10;;
19161;SDS011;9713;48.140;11.530;2023-03-23T01:18:06;5.63;;;2.20;;
19161;SDS011;9713;48.140;11.530;2023-03-23T01:21:49;4.23;;;2.07;;
19161;SDS011;9713;48.140;11.530;2023-03-23T01:25:32;3.20;;;1.90;;
19161;SDS011;9713;48.140;11.530;2023-03-23T01:29:16;4.33;;;2.07;;
19161;SDS011;9713;48.140;11.530;2023-03-23T01:32:58;5.60;;;2.10;;
19161;SDS011;9713;48.140;11.530;2023-03-23T01:36:39;4.50;;;2.30;;
19161;SDS011;9713;48.140;11.530;2023-03-23T01:40:22;4.20;;;2.10;;
19161;SDS011;9713;48.140;11.530;2023-03-23T01:44:05;4.67;;;2.10;;
19161;SDS011;9713;48.140;11.530;2023-03-23T01:47:47;2.17;;;1.93;;
19161;SDS011;9713;48.140;11.530;2023-03-23T01:51:31;3.40;;;1.80;;
19161;SDS011;9713;48.140;11.530;2023-03-23T01:55:12;3.37;;;2.00;;
19161;SDS011;9713;48.140;11.530;2023-03-23T01:58:56;2.80;;;2.03;;
19161;SDS011;9713;48.140;11.530;2023-03-23T02:02:37;2.90;;;2.13;;
19161;SDS011;9713;48.140;11.530;2023-03-23T02:06:19;5.27;;;2.20;;
19161;SDS011;9713;48.140;11.530;2023-03-23T02:10:01;4.23;;;2.23;;
19161;SDS011;9713;48.140;11.530;2023-03-23T02:13:44;2.83;;;2.13;;
19161;SDS011;9713;48.140;11.530;2023-03-23T02:17:30;5.23;;;2.27;;
19161;SDS011;9713;48.140;11.530;2023-03-23T02:25:35;3.20;;;2.13;;
19161;SDS011;9713;48.140;11.530;2023-03-23T02:33:36;3.40;;;2.17;;
19161;SDS011;9713;48.140;11.530;2023-03-23T02:37:21;4.43;;;2.33;;
19161;SDS011;9713;48.140;11.530;2023-03-23T02:41:06;3.03;;;2.07;;
19161;SDS011;9713;48.140;11.530;2023-03-23T02:44:49;3.63;;;2.30;;
19161;SDS011;9713;48.140;11.530;2023-03-23T02:48:31;2.43;;;1.97;;
19161;SDS011;9713;48.140;11.530;2023-03-23T02:52:16;4.00;;;2.07;;
19161;SDS011;9713;48.140;11.530;2023-03-23T02:56:01;3.13;;;2.20;;
19161;SDS011;9713;48.140;11.530;2023-03-23T02:59:45;3.37;;;2.00;;
19161;SDS011;9713;48.140;11.530;2023-03-23T03:03:28;3.27;;;1.80;;
19161;SDS011;9713;48.140;11.530;2023-03-23T03:11:15;3.50;;;2.20;;
19161;SDS011;9713;48.140;11.530;2023-03-23T03:14:59;4.17;;;2.10;;
19161;SDS011;9713;48.140;11.530;2023-03-23T03:18:48;2.37;;;1.90;;
19161;SDS011;9713;48.140;11.530;2023-03-23T03:22:34;3.10;;;2.10;;
19161;SDS011;9713;48.140;11.530;2023-03-23T03:26:18;3.93;;;2.10;;
19161;SDS011;9713;48.140;11.530;2023-03-23T03:30:02;3.23;;;2.30;;
19161;SDS011;9713;48.140;11.530;2023-03-23T03:33:46;5.00;;;2.23;;
19161;SDS011;9713;48.140;11.530;2023-03-23T03:37:32;3.90;;;2.00;;
19161;SDS011;9713;48.140;11.530;2023-03-23T03:41:18;4.90;;;2.00;;
19161;SDS011;9713;48.140;11.530;2023-03-23T03:45:00;2.83;;;2.00;;
19161;SDS011;9713;48.140;11.530;2023-03-23T03:48:42;5.37;;;2.23;;
19161;SDS011;9713;48.140;11.530;2023-03-23T03:52:24;2.93;;;2.10;;
19161;SDS011;9713;48.140;11.530;2023-03-23T03:56:07;4.73;;;1.90;;
19161;SDS011;9713;48.140;11.530;2023-03-23T03:59:49;4.00;;;1.90;;
19161;SDS011;9713;48.140;11.530;2023-03-23T04:03:30;6.27;;;2.30;;
19161;SDS011;9713;48.140;11.530;2023-03-23T04:07:12;3.00;;;2.17;;
19161;SDS011;9713;48.140;11.530;2023-03-23T04:10:57;3.50;;;2.00;;
19161;SDS011;9713;48.140;11.530;2023-03-23T04:14:40;3.20;;;1.90;;
19161;SDS011;9713;48.140;11.530;2023-03-23T04:18:22;5.33;;;2.00;;
19161;SDS011;9713;48.140;11.530;2023-03-23T04:22:05;3.47;;;1.90;;
19161;SDS011;9713;48.140;11.530;2023-03-23T04:25:47;3.60;;;2.17;;
19161;SDS011;9713;48.140;11.530;2023-03-23T04:29:29;2.27;;;1.93;;
19161;SDS011;9713;48.140;11.530;2023-03-23T04:33:12;2.57;;;1.90;;
19161;SDS011;9713;48.140;11.530;2023-03-23T04:36:55;3.60;;;1.90;;
19161;SDS011;9713;48.140;11.530;2023-03-23T04:40:37;3.80;;;2.10;;
19161;SDS011;9713;48.140;11.530;2023-03-23T04:44:19;4.90;;;2.33;;
19161;SDS011;9713;48.140;11.530;2023-03-23T04:48:01;2.73;;;1.80;;
19161;SDS011;9713;48.140;11.530;2023-03-23T04:51:46;2.27;;;1.80;;
19161;SDS011;9713;48.140;11.530;2023-03-23T04:55:31;2.57;;;1.93;;
19161;SDS011;9713;48.140;11.530;2023-03-23T04:59:16;2.60;;;1.97;;
19161;SDS011;9713;48.140;11.530;2023-03-23T05:02:57;4.53;;;1.90;;
19161;SDS011;9713;48.140;11.530;2023-03-23T05:06:40;2.60;;;1.80;;
19161;SDS011;9713;48.140;11.530;2023-03-23T05:10:26;2.43;;;1.80;;
19161;SDS011;9713;48.140;11.530;2023-03-23T05:14:08;5.17;;;2.60;;
19161;SDS011;9713;48.140;11.530;2023-03-23T05:17:50;3.80;;;2.20;;
19161;SDS011;9713;48.140;11.530;2023-03-23T05:21:32;3.77;;;2.10;;
19161;SDS011;9713;48.140;11.530;2023-03-23T05:25:14;5.97;;;2.10;;
19161;SDS011;9713;48.140;11.530;2023-03-23T05:29:00;3.17;;;2.10;;
19161;SDS011;9713;48.140;11.530;2023-03-23T05:32:42;3.17;;;2.17;;
19161;SDS011;9713;48.140;11.530;2023-03-23T05:36:25;4.63;;;2.20;;
19161;SDS011;9713;48.140;11.530;2023-03-23T05:40:06;4.53;;;2.17;;
19161;SDS011;9713;48.140;11.530;2023-03-23T05:43:49;4.07;;;1.97;;
19161;SDS011;9713;48.140;11.530;2023-03-23T05:47:32;6.00;;;2.47;;
19161;SDS011;9713;48.140;11.530;2023-03-23T05:51:13;7.40;;;2.20;;
19161;SDS011;9713;48.140;11.530;2023-03-23T05:54:55;6.77;;;2.50;;
19161;SDS011;9713;48.140;11.530;2023-03-23T05:58:37;6.77;;;2.40;;
19161;SDS011;9713;48.140;11.530;2023-03-23T06:02:18;5.13;;;2.37;;
19161;SDS011;9713;48.140;11.530;2023-03-23T06:06:02;5.13;;;2.23;;
19161;SDS011;9713;48.140;11.530;2023-03-23T06:09:43;5.60;;;2.50;;
19161;SDS011;9713;48.140;11.530;2023-03-23T06:13:25;8.30;;;4.20;;
19161;SDS011;9713;48.140;11.530;2023-03-23T06:17:07;7.57;;;2.60;;
19161;SDS011;9713;48.140;11.530;2023-03-23T06:20:48;4.47;;;2.50;;
19161;SDS011;9713;48.140;11.530;2023-03-23T06:24:32;5.20;;;2.37;;
19161;SDS011;9713;48.140;11.530;2023-03-23T06:28:14;4.60;;;2.67;;
19161;SDS011;9713;48.140;11.530;2023-03-23T06:31:58;4.63;;;2.30;;
19161;SDS011;9713;48.140;11.530;2023-03-23T06:35:42;3.70;;;2.43;;
19161;SDS011;9713;48.140;11.530;2023-03-23T06:39:24;19.60;;;5.00;;
19161;SDS011;9713;48.140;11.530;2023-03-23T06:43:07;4.13;;;2.17;;
19161;SDS011;9713;48.140;11.530;2023-03-23T06:46:49;4.97;;;2.40;;
19161;SDS011;9713;48.140;11.530;2023-03-23T06:50:31;5.77;;;2.90;;
19161;SDS011;9713;48.140;11.530;2023-03-23T06:54:12;4.40;;;3.20;;
19161;SDS011;9713;48.140;11.530;2023-03-23T06:57:54;5.30;;;2.73;;
19161;SDS011;9713;48.140;11.530;2023-03-23T07:01:37;5.87;;;2.53;;
19161;SDS011;9713;48.140;11.530;2023-03-23T07:05:19;4.70;;;2.40;;
19161;SDS011;9713;48.140;11.530;2023-03-23T07:09:01;7.20;;;2.60;;
19161;SDS011;9713;48.140;11.530;2023-03-23T07:12:43;4.70;;;2.40;;
19161;SDS011;9713;48.140;11.530;2023-03-23T07:16:24;4.80;;;2.50;;
19161;SDS011;9713;48.140;11.530;2023-03-23T07:20:08;6.57;;;2.40;;
19161;SDS011;9713;48.140;11.530;2023-03-23T07:23:51;5.77;;;2.47;;
19161;SDS011;9713;48.140;11.530;2023-03-23T07:27:32;3.67;;;2.50;;
19161;SDS011;9713;48.140;11.530;2023-03-23T07:31:14;3.77;;;2.40;;
19161;SDS011;9713;48.140;11.530;2023-03-23T07:34:56;7.80;;;2.40;;
19161;SDS011;9713;48.140;11.530;2023-03-23T07:38:39;3.77;;;2.47;;
19161;SDS011;9713;48.140;11.530;2023-03-23T07:42:21;6.03;;;2.60;;
19161;SDS011;9713;48.140;11.530;2023-03-23T07:46:03;7.30;;;2.37;;
19161;SDS011;9713;48.140;11.530;2023-03-23T07:49:45;4.50;;;2.30;;
19161;SDS011;9713;48.140;11.530;2023-03-23T07:53:26;7.33;;;2.63;;
19161;SDS011;9713;48.140;11.530;2023-03-23T07:57:10;5.20;;;2.40;;
19161;SDS011;9713;48.140;11.530;2023-03-23T08:00:52;4.50;;;2.50;;
19161;SDS011;9713;48.140;11.530;2023-03-23T08:04:35;3.67;;;2.20;;
19161;SDS011;9713;48.140;11.530;2023-03-23T08:08:17;4.37;;;2.40;;
19161;SDS011;9713;48.140;11.530;2023-03-23T08:11:59;3.07;;;2.10;;
19161;SDS011;9713;48.140;11.530;2023-03-23T08:15:43;5.03;;;2.40;;
19161;SDS011;9713;48.140;11.530;2023-03-23T08:19:25;5.17;;;2.50;;
19161;SDS011;9713;48.140;11.530;2023-03-23T08:23:07;3.47;;;2.23;;
19161;SDS011;9713;48.140;11.530;2023-03-23T08:26:49;3.07;;;2.40;;
19161;SDS011;9713;48.140;11.530;2023-03-23T08:30:30;4.63;;;2.17;;
19161;SDS011;9713;48.140;11.530;2023-03-23T08:34:15;4.87;;;2.00;;
19161;SDS011;9713;48.140;11.530;2023-03-23T08:37:57;3.63;;;2.20;;
19161;SDS011;9713;48.140;11.530;2023-03-23T08:41:38;6.30;;;2.20;;
19161;SDS011;9713;48.140;11.530;2023-03-23T08:45:21;4.03;;;2.00;;
19161;SDS011;9713;48.140;11.530;2023-03-23T08:49:03;2.90;;;1.83;;
19161;SDS011;9713;48.140;11.530;2023-03-23T08:52:47;5.27;;;2.00;;
19161;SDS011;9713;48.140;11.530;2023-03-23T08:56:32;5.00;;;2.03;;
19161;SDS011;9713;48.140;11.530;2023-03-23T09:00:15;3.80;;;2.10;;
19161;SDS011;9713;48.140;11.530;2023-03-23T09:03:59;5.00;;;2.03;;
19161;SDS011;9713;48.140;11.530;2023-03-23T09:07:45;5.00;;;2.13;;
19161;SDS011;9713;48.140;11.530;2023-03-23T09:11:29;3.23;;;2.13;;
19161;SDS011;9713;48.140;11.530;2023-03-23T09:15:11;5.93;;;1.90;;
19161;SDS011;9713;48.140;11.530;2023-03-23T09:18:54;2.27;;;1.73;;
19161;SDS011;9713;48.140;11.530;2023-03-23T09:22:36;3.33;;;1.90;;
19161;SDS011;9713;48.140;11.530;2023-03-23T09:26:21;4.70;;;2.30;;
19161;SDS011;9713;48.140;11.530;2023-03-23T09:30:03;2.90;;;1.80;;
19161;SDS011;9713;48.140;11.530;2023-03-23T09:33:46;2.93;;;1.83;;
19161;SDS011;9713;48.140;11.530;2023-03-23T09:37:31;3.23;;;1.90;;
19161;SDS011;9713;48.140;11.530;2023-03-23T09:41:23;3.17;;;1.77;;
19161;SDS011;9713;48.140;11.530;2023-03-23T09:45:16;6.20;;;2.33;;
19161;SDS011;9713;48.140;11.530;2023-03-23T09:49:02;4.17;;;2.60;;
19161;SDS011;9713;48.140;11.530;2023-03-23T09:52:49;7.10;;;3.30;;
19161;SDS011;9713;48.140;11.530;2023-03-23T09:56:36;5.37;;;3.30;;
19161;SDS011;9713;48.140;11.530;2023-03-23T10:00:19;4.33;;;3.50;;
19161;SDS011;9713;48.140;11.530;2023-03-23T10:04:03;5.83;;;4.00;;
19161;SDS011;9713;48.140;11.530;2023-03-23T10:07:48;4.73;;;3.40;;
19161;SDS011;9713;48.140;11.530;2023-03-23T10:11:33;5.60;;;3.97;;
19161;SDS011;9713;48.140;11.530;2023-03-23T10:15:25;5.67;;;3.40;;
19161;SDS011;9713;48.140;11.530;2023-03-23T10:19:12;5.40;;;3.30;;
19161;SDS011;9713;48.140;11.530;2023-03-23T10:23:02;4.67;;;3.23;;
19161;SDS011;9713;48.140;11.530;2023-03-23T10:26:54;4.63;;;3.20;;
19161;SDS011;9713;48.140;11.530;2023-03-23T10:30:41;7.60;;;3.00;;
19161;SDS011;9713;48.140;11.530;2023-03-23T10:34:32;5.17;;;3.07;;
19161;SDS011;9713;48.140;11.530;2023-03-23T10:38:17;5.43;;;3.03;;
19161;SDS011;9713;48.140;11.530;2023-03-23T10:42:02;5.77;;;3.37;;
19161;SDS011;9713;48.140;11.530;2023-03-23T10:45:48;4.77;;;3.00;;
19161;SDS011;9713;48.140;11.530;2023-03-23T10:49:36;4.70;;;3.00;;
19161;SDS011;9713;48.140;11.530;2023-03-23T10:53:21;4.77;;;2.73;;
19161;SDS011;9713;48.140;11.530;2023-03-23T10:57:17;4.53;;;2.85;;
19161;SDS011;9713;48.140;11.530;2023-03-23T11:01:03;4.87;;;3.13;;
19161;SDS011;9713;48.140;11.530;2023-03-23T11:04:46;6.70;;;2.90;;
19161;SDS011;9713;48.140;11.530;2023-03-23T11:08:37;4.60;;;3.00;;
19161;SDS011;9713;48.140;11.530;2023-03-23T11:12:20;4.47;;;3.03;;
19161;SDS011;9713;48.140;11.530;2023-03-23T11:16:03;4.60;;;2.77;;
19161;SDS011;9713;48.140;11.530;2023-03-23T11:19:46;6.67;;;3.20;;
19161;SDS011;9713;48.140;11.530;2023-03-23T11:23:29;7.60;;;2.87;;
19161;SDS011;9713;48.140;11.530;2023-03-23T11:27:11;5.67;;;2.67;;
19161;SDS011;9713;48.140;11.530;2023-03-23T11:30:56;4.50;;;2.80;;
19161;SDS011;9713;48.140;11.530;2023-03-23T11:34:40;4.78;;;2.83;;
19161;SDS011;9713;48.140;11.530;2023-03-23T11:38:23;5.97;;;2.53;;
19161;SDS011;9713;48.140;11.530;2023-03-23T11:42:11;3.83;;;2.50;;
19161;SDS011;9713;48.140;11.530;2023-03-23T11:45:58;3.67;;;2.72;;
19161;SDS011;9713;48.140;11.530;2023-03-23T11:49:45;5.15;;;3.53;;
19161;SDS011;9713;48.140;11.530;2023-03-23T11:53:35;5.68;;;2.70;;
19161;SDS011;9713;48.140;11.530;2023-03-23T11:57:21;4.53;;;2.80;;
19161;SDS011;9713;48.140;11.530;2023-03-23T12:01:09;3.97;;;2.78;;
19161;SDS011;9713;48.140;11.530;2023-03-23T12:05:01;4.32;;;3.03;;
19161;SDS011;9713;48.140;11.530;2023-03-23T12:08:58;4.37;;;2.53;;
19161;SDS011;9713;48.140;11.530;2023-03-23T12:12:48;5.47;;;2.97;;
19161;SDS011;9713;48.140;11.530;2023-03-23T12:16:39;5.68;;;2.75;;
19161;SDS011;9713;48.140;11.530;2023-03-23T12:20:29;6.80;;;2.90;;
19161;SDS011;9713;48.140;11.530;2023-03-23T12:24:17;4.07;;;3.00;;
19161;SDS011;9713;48.140;11.530;2023-03-23T12:28:07;5.32;;;3.60;;
19161;SDS011;9713;48.140;11.530;2023-03-23T12:32:14;5.78;;;3.05;;
19161;SDS011;9713;48.140;11.530;2023-03-23T12:36:13;6.90;;;3.00;;
19161;SDS011;9713;48.140;11.530;2023-03-23T12:40:09;3.72;;;2.83;;
19161;SDS011;9713;48.140;11.530;2023-03-23T12:44:03;6.47;;;2.97;;
19161;SDS011;9713;48.140;11.530;2023-03-23T12:47:52;6.10;;;2.92;;
19161;SDS011;9713;48.140;11.530;2023-03-23T12:51:37;4.63;;;2.95;;
19161;SDS011;9713;48.140;11.530;2023-03-23T12:55:25;4.68;;;3.20;;
19161;SDS011;9713;48.140;11.530;2023-03-23T12:59:15;4.65;;;1.92;;
19161;SDS011;9713;48.140;11.530;2023-03-23T13:03:01;3.97;;;1.90;;
19161;SDS011;9713;48.140;11.530;2023-03-23T13:06:46;4.63;;;2.08;;
19161;SDS011;9713;48.140;11.530;2023-03-23T13:10:29;4.82;;;1.90;;
19161;SDS011;9713;48.140;11.530;2023-03-23T13:14:17;3.05;;;1.50;;
19161;SDS011;9713;48.140;11.530;2023-03-23T13:18:07;2.55;;;1.50;;
19161;SDS011;9713;48.140;11.530;2023-03-23T13:21:54;5.90;;;2.08;;
19161;SDS011;9713;48.140;11.530;2023-03-23T13:25:49;3.80;;;1.90;;
19161;SDS011;9713;48.140;11.530;2023-03-23T13:29:33;4.18;;;1.67;;
19161;SDS011;9713;48.140;11.530;2023-03-23T13:33:16;5.95;;;1.90;;
19161;SDS011;9713;48.140;11.530;2023-03-23T13:36:58;1.85;;;1.42;;
19161;SDS011;9713;48.140;11.530;2023-03-23T13:40:43;1.95;;;1.52;;
19161;SDS011;9713;48.140;11.530;2023-03-23T13:44:26;3.05;;;1.92;;
19161;SDS011;9713;48.140;11.530;2023-03-23T13:48:22;2.60;;;1.70;;
19161;SDS011;9713;48.140;11.530;2023-03-23T13:52:16;2.47;;;1.67;;
19161;SDS011;9713;48.140;11.530;2023-03-23T13:56:05;5.88;;;1.92;;
19161;SDS011;9713;48.140;11.530;2023-03-23T13:59:49;3.33;;;2.00;;
19161;SDS011;9713;48.140;11.530;2023-03-23T14:03:40;4.43;;;2.30;;
19161;SDS011;9713;48.140;11.530;2023-03-23T14:07:23;3.83;;;2.35;;
19161;SDS011;9713;48.140;11.530;2023-03-23T14:11:14;4.77;;;2.10;;
19161;SDS011;9713;48.140;11.530;2023-03-23T14:14:59;5.38;;;2.15;;
19161;SDS011;9713;48.140;11.530;2023-03-23T14:18:51;4.03;;;1.40;;
19161;SDS011;9713;48.140;11.530;2023-03-23T14:22:35;2.20;;;1.60;;
19161;SDS011;9713;48.140;11.530;2023-03-23T14:26:20;3.23;;;1.67;;
19161;SDS011;9713;48.140;11.530;2023-03-23T14:30:03;2.80;;;1.67;;
19161;SDS011;9713;48.140;11.530;2023-03-23T14:33:47;2.93;;;1.80;;
19161;SDS011;9713;48.140;11.530;2023-03-23T14:37:30;3.53;;;1.67;;
19161;SDS011;9713;48.140;11.530;2023-03-23T14:41:12;3.67;;;1.60;;
19161;SDS011;9713;48.140;11.530;2023-03-23T14:44:54;4.45;;;1.55;;
19161;SDS011;9713;48.140;11.530;2023-03-23T14:48:37;3.87;;;1.70;;
19161;SDS011;9713;48.140;11.530;2023-03-23T14:52:21;4.13;;;1.70;;
19161;SDS011;9713;48.140;11.530;2023-03-23T14:56:09;8.07;;;1.90;;
19161;SDS011;9713;48.140;11.530;2023-03-23T14:59:52;3.90;;;1.90;;
19161;SDS011;9713;48.140;11.530;2023-03-23T15:03:35;3.78;;;1.70;;
19161;SDS011;9713;48.140;11.530;2023-03-23T15:07:18;3.28;;;1.88;;
19161;SDS011;9713;48.140;11.530;2023-03-23T15:11:07;2.87;;;1.70;;
19161;SDS011;9713;48.140;11.530;2023-03-23T15:14:51;3.57;;;1.63;;
19161;SDS011;9713;48.140;11.530;2023-03-23T15:18:35;2.08;;;1.67;;
19161;SDS011;9713;48.140;11.530;2023-03-23T15:22:20;4.97;;;1.70;;
19161;SDS011;9713;48.140;11.530;2023-03-23T15:26:03;3.07;;;1.80;;
19161;SDS011;9713;48.140;11.530;2023-03-23T15:29:50;3.70;;;1.87;;
19161;SDS011;9713;48.140;11.530;2023-03-23T15:33:33;4.13;;;1.98;;
19161;SDS011;9713;48.140;11.530;2023-03-23T15:37:18;4.50;;;1.90;;
19161;SDS011;9713;48.140;11.530;2023-03-23T15:41:02;4.63;;;2.07;;
19161;SDS011;9713;48.140;11.530;2023-03-23T15:44:54;3.50;;;1.93;;
19161;SDS011;9713;48.140;11.530;2023-03-23T15:48:45;5.97;;;2.23;;
19161;SDS011;9713;48.140;11.530;2023-03-23T15:52:29;7.40;;;2.07;;
19161;SDS011;9713;48.140;11.530;2023-03-23T15:56:11;2.95;;;1.83;;
19161;SDS011;9713;48.140;11.530;2023-03-23T15:59:55;4.43;;;1.83;;
19161;SDS011;9713;48.140;11.530;2023-03-23T16:03:38;14.23;;;5.20;;
19161;SDS011;9713;48.140;11.530;2023-03-23T16:07:23;2.43;;;1.80;;
19161;SDS011;9713;48.140;11.530;2023-03-23T16:11:06;4.93;;;1.50;;
19161;SDS011;9713;48.140;11.530;2023-03-23T16:14:49;3.20;;;1.60;;
19161;SDS011;9713;48.140;11.530;2023-03-23T16:18:33;2.90;;;2.00;;
19161;SDS011;9713;48.140;11.530;2023-03-23T16:22:16;3.03;;;1.80;;
19161;SDS011;9713;48.140;11.530;2023-03-23T16:25:59;4.40;;;2.57;;
19161;SDS011;9713;48.140;11.530;2023-03-23T16:29:42;2.40;;;1.80;;
19161;SDS011;9713;48.140;11.530;2023-03-23T16:33:45;5.80;;;2.13;;
19161;SDS011;9713;48.140;11.530;2023-03-23T16:37:28;8.13;;;2.40;;
19161;SDS011;9713;48.140;11.530;2023-03-23T16:41:14;5.23;;;2.30;;
19161;SDS011;9713;48.140;11.530;2023-03-23T16:44:57;6.80;;;2.30;;
19161;SDS011;9713;48.140;11.530;2023-03-23T16:48:40;3.90;;;2.10;;
19161;SDS011;9713;48.140;11.530;2023-03-23T16:52:24;2.73;;;1.90;;
19161;SDS011;9713;48.140;11.530;2023-03-23T16:56:07;3.67;;;2.10;;
19161;SDS011;9713;48.140;11.530;2023-03-23T16:59:50;7.37;;;2.37;;
19161;SDS011;9713;48.140;11.530;2023-03-23T17:03:33;6.67;;;2.97;;
19161;SDS011;9713;48.140;11.530;2023-03-23T17:07:16;4.30;;;2.80;;
19161;SDS011;9713;48.140;11.530;2023-03-23T17:11:00;5.07;;;2.70;;
19161;SDS011;9713;48.140;11.530;2023-03-23T17:14:45;5.43;;;2.73;;
19161;SDS011;9713;48.140;11.530;2023-03-23T17:18:37;4.57;;;2.77;;
19161;SDS011;9713;48.140;11.530;2023-03-23T17:22:19;5.43;;;2.53;;
19161;SDS011;9713;48.140;11.530;2023-03-23T17:26:04;3.30;;;2.57;;
19161;SDS011;9713;48.140;11.530;2023-03-23T17:29:47;6.07;;;2.97;;
19161;SDS011;9713;48.140;11.530;2023-03-23T17:33:30;3.53;;;2.30;;
19161;SDS011;9713;48.140;11.530;2023-03-23T17:37:13;6.03;;;2.30;;
19161;SDS011;9713;48.140;11.530;2023-03-23T17:40:56;6.33;;;2.87;;
19161;SDS011;9713;48.140;11.530;2023-03-23T17:44:43;3.73;;;2.40;;
19161;SDS011;9713;48.140;11.530;2023-03-23T17:48:26;4.87;;;2.90;;
19161;SDS011;9713;48.140;11.530;2023-03-23T17:52:08;5.33;;;3.40;;
19161;SDS011;9713;48.140;11.530;2023-03-23T17:55:51;6.43;;;2.97;;
19161;SDS011;9713;48.140;11.530;2023-03-23T17:59:34;4.43;;;2.87;;
19161;SDS011;9713;48.140;11.530;2023-03-23T18:03:19;4.43;;;2.80;;
19161;SDS011;9713;48.140;11.530;2023-03-23T18:07:02;7.03;;;3.97;;
19161;SDS011;9713;48.140;11.530;2023-03-23T18:10:44;9.00;;;3.63;;
19161;SDS011;9713;48.140;11.530;2023-03-23T18:14:27;6.13;;;3.63;;
19161;SDS011;9713;48.140;11.530;2023-03-23T18:18:10;4.10;;;2.43;;
19161;SDS011;9713;48.140;11.530;2023-03-23T18:21:54;4.33;;;2.77;;
19161;SDS011;9713;48.140;11.530;2023-03-23T18:25:37;4.53;;;3.17;;
19161;SDS011;9713;48.140;11.530;2023-03-23T18:29:19;3.97;;;2.70;;
19161;SDS011;9713;48.140;11.530;2023-03-23T18:33:02;4.53;;;2.83;;
19161;SDS011;9713;48.140;11.530;2023-03-23T18:36:45;5.23;;;3.13;;
19161;SDS011;9713;48.140;11.530;2023-03-23T18:40:29;4.90;;;3.10;;
19161;SDS011;9713;48.140;11.530;2023-03-23T18:44:12;6.67;;;3.23;;
19161;SDS011;9713;48.140;11.530;2023-03-23T18:47:55;6.07;;;3.50;;
19161;SDS011;9713;48.140;11.530;2023-03-23T18:51:37;5.13;;;3.13;;
19161;SDS011;9713;48.140;11.530;2023-03-23T18:55:20;6.80;;;3.70;;
19161;SDS011;9713;48.140;11.530;2023-03-23T18:59:05;7.70;;;3.47;;
19161;SDS011;9713;48.140;11.530;2023-03-23T19:02:48;5.00;;;3.00;;
19161;SDS011;9713;48.140;11.530;2023-03-23T19:06:32;7.43;;;2.90;;
19161;SDS011;9713;48.140;11.530;2023-03-23T19:10:16;5.47;;;3.03;;
19161;SDS011;9713;48.140;11.530;2023-03-23T19:14:01;7.10;;;3.17;;
19161;SDS011;9713;48.140;11.530;2023-03-23T19:17:45;5.30;;;3.10;;
19161;SDS011;9713;48.140;11.530;2023-03-23T19:21:28;5.40;;;3.10;;
19161;SDS011;9713;48.140;11.530;2023-03-23T19:25:12;4.87;;;3.13;;
19161;SDS011;9713;48.140;11.530;2023-03-23T19:28:55;6.47;;;3.30;;
19161;SDS011;9713;48.140;11.530;2023-03-23T19:32:41;7.40;;;3.37;;
19161;SDS011;9713;48.140;11.530;2023-03-23T19:36:25;5.60;;;3.03;;
19161;SDS011;9713;48.140;11.530;2023-03-23T19:40:09;5.70;;;3.67;;
19161;SDS011;9713;48.140;11.530;2023-03-23T19:44:12;7.13;;;3.70;;
19161;SDS011;9713;48.140;11.530;2023-03-23T19:47:55;5.40;;;3.40;;
19161;SDS011;9713;48.140;11.530;2023-03-23T19:51:39;9.23;;;3.30;;
19161;SDS011;9713;48.140;11.530;2023-03-23T19:55:22;5.47;;;3.10;;
19161;SDS011;9713;48.140;11.530;2023-03-23T19:59:04;5.87;;;3.37;;
19161;SDS011;9713;48.140;11.530;2023-03-23T20:02:49;3.93;;;3.00;;
19161;SDS011;9713;48.140;11.530;2023-03-23T20:06:32;4.63;;;2.90;;
19161;SDS011;9713;48.140;11.530;2023-03-23T20:10:17;4.93;;;3.40;;
19161;SDS011;9713;48.140;11.530;2023-03-23T20:14:00;5.67;;;3.00;;
19161;SDS011;9713;48.140;11.530;2023-03-23T20:17:42;8.33;;;3.40;;
19161;SDS011;9713;48.140;11.530;2023-03-23T20:21:25;4.80;;;3.07;;
19161;SDS011;9713;48.140;11.530;2023-03-23T20:25:08;6.20;;;3.40;;
19161;SDS011;9713;48.140;11.530;2023-03-23T20:28:53;6.50;;;2.93;;
19161;SDS011;9713;48.140;11.530;2023-03-23T20:32:36;6.20;;;3.23;;
19161;SDS011;9713;48.140;11.530;2023-03-23T20:36:20;5.53;;;3.30;;
19161;SDS011;9713;48.140;11.530;2023-03-23T20:40:11;4.73;;;3.00;;
19161;SDS011;9713;48.140;11.530;2023-03-23T20:43:56;7.20;;;3.23;;
19161;SDS011;9713;48.140;11.530;2023-03-23T20:47:40;6.00;;;3.00;;
19161;SDS011;9713;48.140;11.530;2023-03-23T20:51:23;5.77;;;3.33;;
19161;SDS011;9713;48.140;11.530;2023-03-23T20:55:06;4.53;;;3.17;;
19161;SDS011;9713;48.140;11.530;2023-03-23T20:58:49;7.00;;;3.60;;
19161;SDS011;9713;48.140;11.530;2023-03-23T21:02:34;7.33;;;3.47;;
19161;SDS011;9713;48.140;11.530;2023-03-23T21:06:16;5.77;;;3.57;;
19161;SDS011;9713;48.140;11.530;2023-03-23T21:09:59;5.43;;;3.30;;
19161;SDS011;9713;48.140;11.530;2023-03-23T21:13:42;6.90;;;3.43;;
19161;SDS011;9713;48.140;11.530;2023-03-23T21:17:25;5.67;;;3.97;;
19161;SDS011;9713;48.140;11.530;2023-03-23T21:21:10;5.43;;;3.30;;
19161;SDS011;9713;48.140;11.530;2023-03-23T21:24:55;5.53;;;3.30;;
19161;SDS011;9713;48.140;11.530;2023-03-23T21:28:39;5.43;;;2.97;;
19161;SDS011;9713;48.140;11.530;2023-03-23T21:32:22;8.50;;;3.43;;
19161;SDS011;9713;48.140;11.530;2023-03-23T21:36:05;7.90;;;3.53;;
19161;SDS011;9713;48.140;11.530;2023-03-23T21:39:50;7.40;;;3.80;;
19161;SDS011;9713;48.140;11.530;2023-03-23T21:43:32;5.07;;;3.30;;
19161;SDS011;9713;48.140;11.530;2023-03-23T21:47:15;5.60;;;3.23;;
19161;SDS011;9713;48.140;11.530;2023-03-23T21:51:03;8.47;;;3.77;;
19161;SDS011;9713;48.140;11.530;2023-03-23T21:54:46;6.03;;;3.50;;
19161;SDS011;9713;48.140;11.530;2023-03-23T21:58:31;6.93;;;3.87;;
19161;SDS011;9713;48.140;11.530;2023-03-23T22:02:14;6.50;;;3.70;;
19161;SDS011;9713;48.140;11.530;2023-03-23T22:05:58;5.73;;;3.60;;
19161;SDS011;9713;48.140;11.530;2023-03-23T22:09:46;9.27;;;4.20;;
19161;SDS011;9713;48.140;11.530;2023-03-23T22:13:32;6.33;;;3.70;;
19161;SDS011;9713;48.140;11.530;2023-03-23T22:17:15;6.10;;;4.10;;
19161;SDS011;9713;48.140;11.530;2023-03-23T22:20:58;6.27;;;3.83;;
19161;SDS011;9713;48.140;11.530;2023-03-23T22:24:41;8.40;;;4.33;;
19161;SDS011;9713;48.140;11.530;2023-03-23T22:28:24;8.20;;;4.27;;
19161;SDS011;9713;48.140;11.530;2023-03-23T22:32:09;5.17;;;3.93;;
19161;SDS011;9713;48.140;11.530;2023-03-23T22:35:52;6.60;;;4.10;;
19161;SDS011;9713;48.140;11.530;2023-03-23T22:39:34;7.27;;;4.00;;
19161;SDS011;9713;48.140;11.530;2023-03-23T22:43:17;6.23;;;4.00;;